Terminal Aerodrome Forecast
Issued by NWS

Home | Current Version | Previous Version | Graphics & Text | Print | Product List | Glossary On
Versions: 1 2 3 4 5 6 7 8 9 10 11 12 13 14 15
044
FTUS43 KGRB 212329
TAFCWA
TAF
KCWA 212329Z 2200/2224 31010KT P6SM SCT035
     FM220900 29005KT P6SM SKC
     FM221600 24008KT P6SM BKN200
     FM222200 20006KT P6SM BKN100
      AMD LTD TO CLD VIS AND WIND 2204/2212=

USA.gov is the U.S. government's official web portal to all federal, state and local government web resources and services.